sensor_id;sensor_type;location;lat;lon;timestamp;P1;durP1;ratioP1;P2;durP2;ratioP2
43952;SDS011;29608;49.400;11.010;2022-09-03T00:02:20;1.83;;;0.65;;
43952;SDS011;29608;49.400;11.010;2022-09-03T00:04:57;0.80;;;0.80;;
43952;SDS011;29608;49.400;11.010;2022-09-03T00:07:34;0.80;;;0.77;;
43952;SDS011;29608;49.400;11.010;2022-09-03T00:10:14;0.88;;;0.73;;
43952;SDS011;29608;49.400;11.010;2022-09-03T00:12:49;1.05;;;0.95;;
43952;SDS011;29608;49.400;11.010;2022-09-03T00:15:23;1.30;;;1.20;;
43952;SDS011;29608;49.400;11.010;2022-09-03T00:17:53;0.73;;;0.73;;
43952;SDS011;29608;49.400;11.010;2022-09-03T00:20:27;0.90;;;0.90;;
43952;SDS011;29608;49.400;11.010;2022-09-03T00:23:02;0.90;;;0.90;;
43952;SDS011;29608;49.400;11.010;2022-09-03T00:25:36;0.93;;;0.90;;
43952;SDS011;29608;49.400;11.010;2022-09-03T00:28:10;1.40;;;1.30;;
43952;SDS011;29608;49.400;11.010;2022-09-03T00:30:44;1.00;;;0.80;;
43952;SDS011;29608;49.400;11.010;2022-09-03T00:33:24;0.85;;;0.85;;
43952;SDS011;29608;49.400;11.010;2022-09-03T00:36:02;0.90;;;0.90;;
43952;SDS011;29608;49.400;11.010;2022-09-03T00:38:40;1.58;;;0.85;;
43952;SDS011;29608;49.400;11.010;2022-09-03T00:41:09;2.35;;;0.95;;
43952;SDS011;29608;49.400;11.010;2022-09-03T00:44:01;0.80;;;0.80;;
43952;SDS011;29608;49.400;11.010;2022-09-03T00:46:46;1.35;;;1.00;;
43952;SDS011;29608;49.400;11.010;2022-09-03T00:49:30;0.90;;;0.90;;
43952;SDS011;29608;49.400;11.010;2022-09-03T00:52:13;0.98;;;0.80;;
43952;SDS011;29608;49.400;11.010;2022-09-03T00:55:00;1.00;;;0.95;;
43952;SDS011;29608;49.400;11.010;2022-09-03T00:57:37;0.82;;;0.82;;
43952;SDS011;29608;49.400;11.010;2022-09-03T01:00:16;0.73;;;0.73;;
43952;SDS011;29608;49.400;11.010;2022-09-03T01:02:50;0.90;;;0.90;;
43952;SDS011;29608;49.400;11.010;2022-09-03T01:05:34;0.98;;;0.98;;
43952;SDS011;29608;49.400;11.010;2022-09-03T01:08:30;0.90;;;0.90;;
43952;SDS011;29608;49.400;11.010;2022-09-03T01:11:22;1.77;;;1.67;;
43952;SDS011;29608;49.400;11.010;2022-09-03T01:14:00;0.80;;;0.80;;
43952;SDS011;29608;49.400;11.010;2022-09-03T01:16:42;0.70;;;0.70;;
43952;SDS011;29608;49.400;11.010;2022-09-03T01:19:24;0.80;;;0.80;;
43952;SDS011;29608;49.400;11.010;2022-09-03T01:22:24;0.80;;;0.80;;
43952;SDS011;29608;49.400;11.010;2022-09-03T01:25:21;1.45;;;0.95;;
43952;SDS011;29608;49.400;11.010;2022-09-03T01:28:13;0.85;;;0.85;;
43952;SDS011;29608;49.400;11.010;2022-09-03T01:30:54;0.80;;;0.80;;
43952;SDS011;29608;49.400;11.010;2022-09-03T01:33:38;1.00;;;0.77;;
43952;SDS011;29608;49.400;11.010;2022-09-03T01:36:17;2.08;;;0.70;;
43952;SDS011;29608;49.400;11.010;2022-09-03T01:38:59;0.90;;;0.90;;
43952;SDS011;29608;49.400;11.010;2022-09-03T01:41:34;0.93;;;0.93;;
43952;SDS011;29608;49.400;11.010;2022-09-03T01:44:38;2.92;;;1.13;;
43952;SDS011;29608;49.400;11.010;2022-09-03T01:47:26;0.80;;;0.80;;
43952;SDS011;29608;49.400;11.010;2022-09-03T01:50:04;0.70;;;0.70;;
43952;SDS011;29608;49.400;11.010;2022-09-03T01:52:42;0.80;;;0.80;;
43952;SDS011;29608;49.400;11.010;2022-09-03T01:55:25;0.93;;;0.93;;
43952;SDS011;29608;49.400;11.010;2022-09-03T01:58:01;2.92;;;0.80;;
43952;SDS011;29608;49.400;11.010;2022-09-03T02:00:37;0.85;;;0.85;;
43952;SDS011;29608;49.400;11.010;2022-09-03T02:03:10;0.70;;;0.70;;
43952;SDS011;29608;49.400;11.010;2022-09-03T02:05:40;0.77;;;0.77;;
43952;SDS011;29608;49.400;11.010;2022-09-03T02:08:09;0.73;;;0.73;;
43952;SDS011;29608;49.400;11.010;2022-09-03T02:10:38;0.93;;;0.90;;
43952;SDS011;29608;49.400;11.010;2022-09-03T02:13:12;1.00;;;1.00;;
43952;SDS011;29608;49.400;11.010;2022-09-03T02:15:47;0.70;;;0.70;;
43952;SDS011;29608;49.400;11.010;2022-09-03T02:18:19;0.60;;;0.60;;
43952;SDS011;29608;49.400;11.010;2022-09-03T02:20:53;0.85;;;0.77;;
43952;SDS011;29608;49.400;11.010;2022-09-03T02:23:22;1.42;;;0.90;;
43952;SDS011;29608;49.400;11.010;2022-09-03T02:25:54;0.93;;;0.93;;
43952;SDS011;29608;49.400;11.010;2022-09-03T02:28:24;0.93;;;0.70;;
43952;SDS011;29608;49.400;11.010;2022-09-03T02:30:55;0.68;;;0.68;;
43952;SDS011;29608;49.400;11.010;2022-09-03T02:33:23;0.75;;;0.75;;
43952;SDS011;29608;49.400;11.010;2022-09-03T02:35:51;0.65;;;0.60;;
43952;SDS011;29608;49.400;11.010;2022-09-03T02:38:21;0.70;;;0.70;;
43952;SDS011;29608;49.400;11.010;2022-09-03T02:40:51;0.90;;;0.90;;
43952;SDS011;29608;49.400;11.010;2022-09-03T02:43:21;0.70;;;0.70;;
43952;SDS011;29608;49.400;11.010;2022-09-03T02:45:59;0.90;;;0.90;;
43952;SDS011;29608;49.400;11.010;2022-09-03T02:48:30;0.80;;;0.80;;
43952;SDS011;29608;49.400;11.010;2022-09-03T02:50:58;0.70;;;0.70;;
43952;SDS011;29608;49.400;11.010;2022-09-03T02:53:26;2.80;;;0.85;;
43952;SDS011;29608;49.400;11.010;2022-09-03T02:55:56;0.90;;;0.90;;
43952;SDS011;29608;49.400;11.010;2022-09-03T02:58:26;0.70;;;0.70;;
43952;SDS011;29608;49.400;11.010;2022-09-03T03:00:56;0.70;;;0.70;;
43952;SDS011;29608;49.400;11.010;2022-09-03T03:03:26;1.83;;;0.65;;
43952;SDS011;29608;49.400;11.010;2022-09-03T03:05:54;0.50;;;0.50;;
43952;SDS011;29608;49.400;11.010;2022-09-03T03:08:25;0.70;;;0.70;;
43952;SDS011;29608;49.400;11.010;2022-09-03T03:10:55;0.85;;;0.85;;
43952;SDS011;29608;49.400;11.010;2022-09-03T03:13:26;0.63;;;0.63;;
43952;SDS011;29608;49.400;11.010;2022-09-03T03:15:55;0.73;;;0.73;;
43952;SDS011;29608;49.400;11.010;2022-09-03T03:18:25;0.73;;;0.73;;
43952;SDS011;29608;49.400;11.010;2022-09-03T03:20:53;0.80;;;0.80;;
43952;SDS011;29608;49.400;11.010;2022-09-03T03:23:22;1.10;;;1.00;;
43952;SDS011;29608;49.400;11.010;2022-09-03T03:25:50;0.68;;;0.68;;
43952;SDS011;29608;49.400;11.010;2022-09-03T03:28:18;0.70;;;0.70;;
43952;SDS011;29608;49.400;11.010;2022-09-03T03:30:45;0.80;;;0.80;;
43952;SDS011;29608;49.400;11.010;2022-09-03T03:33:14;0.60;;;0.60;;
43952;SDS011;29608;49.400;11.010;2022-09-03T03:35:43;0.70;;;0.70;;
43952;SDS011;29608;49.400;11.010;2022-09-03T03:38:11;0.70;;;0.70;;
43952;SDS011;29608;49.400;11.010;2022-09-03T03:40:39;0.68;;;0.68;;
43952;SDS011;29608;49.400;11.010;2022-09-03T03:43:06;0.80;;;0.80;;
43952;SDS011;29608;49.400;11.010;2022-09-03T03:45:34;0.98;;;0.90;;
43952;SDS011;29608;49.400;11.010;2022-09-03T03:48:02;0.68;;;0.68;;
43952;SDS011;29608;49.400;11.010;2022-09-03T03:50:30;0.85;;;0.80;;
43952;SDS011;29608;49.400;11.010;2022-09-03T03:52:59;2.30;;;0.63;;
43952;SDS011;29608;49.400;11.010;2022-09-03T03:55:27;1.02;;;1.02;;
43952;SDS011;29608;49.400;11.010;2022-09-03T03:58:00;0.60;;;0.60;;
43952;SDS011;29608;49.400;11.010;2022-09-03T04:00:28;0.68;;;0.68;;
43952;SDS011;29608;49.400;11.010;2022-09-03T04:02:57;0.80;;;0.80;;
43952;SDS011;29608;49.400;11.010;2022-09-03T04:05:26;1.45;;;1.35;;
43952;SDS011;29608;49.400;11.010;2022-09-03T04:08:01;1.02;;;0.80;;
43952;SDS011;29608;49.400;11.010;2022-09-03T04:10:29;0.75;;;0.70;;
43952;SDS011;29608;49.400;11.010;2022-09-03T04:12:57;0.80;;;0.80;;
43952;SDS011;29608;49.400;11.010;2022-09-03T04:15:26;0.82;;;0.82;;
43952;SDS011;29608;49.400;11.010;2022-09-03T04:17:54;0.73;;;0.73;;
43952;SDS011;29608;49.400;11.010;2022-09-03T04:20:22;0.68;;;0.68;;
43952;SDS011;29608;49.400;11.010;2022-09-03T04:22:50;0.73;;;0.73;;
43952;SDS011;29608;49.400;11.010;2022-09-03T04:25:19;1.70;;;1.55;;
43952;SDS011;29608;49.400;11.010;2022-09-03T04:27:46;0.80;;;0.80;;
43952;SDS011;29608;49.400;11.010;2022-09-03T04:30:14;1.00;;;0.90;;
43952;SDS011;29608;49.400;11.010;2022-09-03T04:32:42;0.80;;;0.80;;
43952;SDS011;29608;49.400;11.010;2022-09-03T04:35:27;0.90;;;0.90;;
43952;SDS011;29608;49.400;11.010;2022-09-03T04:38:02;0.70;;;0.70;;
43952;SDS011;29608;49.400;11.010;2022-09-03T04:40:31;0.70;;;0.70;;
43952;SDS011;29608;49.400;11.010;2022-09-03T04:43:00;0.65;;;0.60;;
43952;SDS011;29608;49.400;11.010;2022-09-03T04:45:27;0.80;;;0.80;;
43952;SDS011;29608;49.400;11.010;2022-09-03T04:47:56;0.82;;;0.82;;
43952;SDS011;29608;49.400;11.010;2022-09-03T04:50:25;0.80;;;0.80;;
43952;SDS011;29608;49.400;11.010;2022-09-03T04:52:54;0.80;;;0.80;;
43952;SDS011;29608;49.400;11.010;2022-09-03T04:55:34;2.45;;;0.80;;
43952;SDS011;29608;49.400;11.010;2022-09-03T04:58:04;0.98;;;0.98;;
43952;SDS011;29608;49.400;11.010;2022-09-03T05:00:34;0.90;;;0.90;;
43952;SDS011;29608;49.400;11.010;2022-09-03T05:03:03;0.90;;;0.90;;
43952;SDS011;29608;49.400;11.010;2022-09-03T05:05:31;1.15;;;0.80;;
43952;SDS011;29608;49.400;11.010;2022-09-03T05:07:59;0.70;;;0.70;;
43952;SDS011;29608;49.400;11.010;2022-09-03T05:10:28;0.75;;;0.75;;
43952;SDS011;29608;49.400;11.010;2022-09-03T05:12:58;1.05;;;0.90;;
43952;SDS011;29608;49.400;11.010;2022-09-03T05:15:28;0.60;;;0.60;;
43952;SDS011;29608;49.400;11.010;2022-09-03T05:17:58;0.85;;;0.85;;
43952;SDS011;29608;49.400;11.010;2022-09-03T05:20:29;1.50;;;0.80;;
43952;SDS011;29608;49.400;11.010;2022-09-03T05:23:00;0.80;;;0.80;;
43952;SDS011;29608;49.400;11.010;2022-09-03T05:25:29;0.80;;;0.80;;
43952;SDS011;29608;49.400;11.010;2022-09-03T05:27:59;0.65;;;0.65;;
43952;SDS011;29608;49.400;11.010;2022-09-03T05:30:27;0.68;;;0.68;;
43952;SDS011;29608;49.400;11.010;2022-09-03T05:32:55;0.60;;;0.60;;
43952;SDS011;29608;49.400;11.010;2022-09-03T05:35:23;0.85;;;0.85;;
43952;SDS011;29608;49.400;11.010;2022-09-03T05:37:55;0.70;;;0.70;;
43952;SDS011;29608;49.400;11.010;2022-09-03T05:40:23;0.60;;;0.60;;
43952;SDS011;29608;49.400;11.010;2022-09-03T05:42:53;0.70;;;0.70;;
43952;SDS011;29608;49.400;11.010;2022-09-03T05:45:25;0.68;;;0.68;;
43952;SDS011;29608;49.400;11.010;2022-09-03T05:47:55;1.00;;;0.63;;
43952;SDS011;29608;49.400;11.010;2022-09-03T05:50:26;0.82;;;0.82;;
43952;SDS011;29608;49.400;11.010;2022-09-03T05:52:54;0.65;;;0.65;;
43952;SDS011;29608;49.400;11.010;2022-09-03T05:55:24;0.90;;;0.90;;
43952;SDS011;29608;49.400;11.010;2022-09-03T05:57:53;0.77;;;0.73;;
43952;SDS011;29608;49.400;11.010;2022-09-03T06:00:21;1.17;;;0.98;;
43952;SDS011;29608;49.400;11.010;2022-09-03T06:02:51;0.90;;;0.90;;
43952;SDS011;29608;49.400;11.010;2022-09-03T06:05:19;0.73;;;0.65;;
43952;SDS011;29608;49.400;11.010;2022-09-03T06:07:47;0.70;;;0.65;;
43952;SDS011;29608;49.400;11.010;2022-09-03T06:10:15;0.70;;;0.70;;
43952;SDS011;29608;49.400;11.010;2022-09-03T06:12:50;0.80;;;0.80;;
43952;SDS011;29608;49.400;11.010;2022-09-03T06:15:18;0.70;;;0.70;;
43952;SDS011;29608;49.400;11.010;2022-09-03T06:17:46;0.90;;;0.90;;
43952;SDS011;29608;49.400;11.010;2022-09-03T06:20:15;0.70;;;0.70;;
43952;SDS011;29608;49.400;11.010;2022-09-03T06:22:46;0.98;;;0.98;;
43952;SDS011;29608;49.400;11.010;2022-09-03T06:25:18;0.95;;;0.80;;
43952;SDS011;29608;49.400;11.010;2022-09-03T06:27:46;0.70;;;0.70;;
43952;SDS011;29608;49.400;11.010;2022-09-03T06:30:14;0.98;;;0.88;;
43952;SDS011;29608;49.400;11.010;2022-09-03T06:32:43;0.70;;;0.70;;
43952;SDS011;29608;49.400;11.010;2022-09-03T06:35:11;0.60;;;0.60;;
43952;SDS011;29608;49.400;11.010;2022-09-03T06:37:41;0.80;;;0.65;;
43952;SDS011;29608;49.400;11.010;2022-09-03T06:40:09;0.75;;;0.75;;
43952;SDS011;29608;49.400;11.010;2022-09-03T06:42:38;0.82;;;0.82;;
43952;SDS011;29608;49.400;11.010;2022-09-03T06:45:11;0.82;;;0.68;;
43952;SDS011;29608;49.400;11.010;2022-09-03T06:47:38;0.50;;;0.50;;
43952;SDS011;29608;49.400;11.010;2022-09-03T06:50:06;0.70;;;0.70;;
43952;SDS011;29608;49.400;11.010;2022-09-03T06:52:35;0.55;;;0.55;;
43952;SDS011;29608;49.400;11.010;2022-09-03T06:55:05;0.60;;;0.60;;
43952;SDS011;29608;49.400;11.010;2022-09-03T06:57:33;0.70;;;0.70;;
43952;SDS011;29608;49.400;11.010;2022-09-03T07:00:01;0.80;;;0.80;;
43952;SDS011;29608;49.400;11.010;2022-09-03T07:02:30;0.90;;;0.90;;
43952;SDS011;29608;49.400;11.010;2022-09-03T07:04:58;0.70;;;0.70;;
43952;SDS011;29608;49.400;11.010;2022-09-03T07:07:26;2.75;;;0.60;;
43952;SDS011;29608;49.400;11.010;2022-09-03T07:09:54;1.20;;;1.02;;
43952;SDS011;29608;49.400;11.010;2022-09-03T07:12:23;1.20;;;1.10;;
43952;SDS011;29608;49.400;11.010;2022-09-03T07:14:51;0.88;;;0.88;;
43952;SDS011;29608;49.400;11.010;2022-09-03T07:17:19;2.85;;;0.70;;
43952;SDS011;29608;49.400;11.010;2022-09-03T07:19:47;1.73;;;0.85;;
43952;SDS011;29608;49.400;11.010;2022-09-03T07:22:14;0.80;;;0.80;;
43952;SDS011;29608;49.400;11.010;2022-09-03T07:24:42;1.20;;;1.10;;
43952;SDS011;29608;49.400;11.010;2022-09-03T07:27:12;2.08;;;1.08;;
43952;SDS011;29608;49.400;11.010;2022-09-03T07:29:41;1.13;;;1.02;;
43952;SDS011;29608;49.400;11.010;2022-09-03T07:32:09;0.93;;;0.93;;
43952;SDS011;29608;49.400;11.010;2022-09-03T07:34:37;1.10;;;1.00;;
43952;SDS011;29608;49.400;11.010;2022-09-03T07:37:05;1.10;;;1.00;;
43952;SDS011;29608;49.400;11.010;2022-09-03T07:39:33;1.98;;;1.00;;
43952;SDS011;29608;49.400;11.010;2022-09-03T07:42:01;1.00;;;0.82;;
43952;SDS011;29608;49.400;11.010;2022-09-03T07:44:29;0.70;;;0.63;;
43952;SDS011;29608;49.400;11.010;2022-09-03T07:46:58;0.85;;;0.80;;
43952;SDS011;29608;49.400;11.010;2022-09-03T07:49:26;1.33;;;0.95;;
43952;SDS011;29608;49.400;11.010;2022-09-03T07:51:54;1.00;;;0.90;;
43952;SDS011;29608;49.400;11.010;2022-09-03T07:54:22;1.02;;;0.95;;
43952;SDS011;29608;49.400;11.010;2022-09-03T07:56:52;1.13;;;0.80;;
43952;SDS011;29608;49.400;11.010;2022-09-03T07:59:21;1.20;;;1.00;;
43952;SDS011;29608;49.400;11.010;2022-09-03T08:01:49;1.98;;;1.05;;
43952;SDS011;29608;49.400;11.010;2022-09-03T08:04:19;1.15;;;1.00;;
43952;SDS011;29608;49.400;11.010;2022-09-03T08:06:48;0.68;;;0.68;;
43952;SDS011;29608;49.400;11.010;2022-09-03T08:09:20;0.90;;;0.90;;
43952;SDS011;29608;49.400;11.010;2022-09-03T08:11:48;1.95;;;0.73;;
43952;SDS011;29608;49.400;11.010;2022-09-03T08:14:16;0.98;;;0.98;;
43952;SDS011;29608;49.400;11.010;2022-09-03T08:16:45;2.03;;;1.30;;
43952;SDS011;29608;49.400;11.010;2022-09-03T08:19:14;1.42;;;0.85;;
43952;SDS011;29608;49.400;11.010;2022-09-03T08:21:44;1.35;;;0.90;;
43952;SDS011;29608;49.400;11.010;2022-09-03T08:24:13;1.40;;;1.02;;
43952;SDS011;29608;49.400;11.010;2022-09-03T08:26:45;1.20;;;1.10;;
43952;SDS011;29608;49.400;11.010;2022-09-03T08:29:17;1.90;;;0.90;;
43952;SDS011;29608;49.400;11.010;2022-09-03T08:31:47;1.02;;;0.98;;
43952;SDS011;29608;49.400;11.010;2022-09-03T08:34:15;1.27;;;0.95;;
43952;SDS011;29608;49.400;11.010;2022-09-03T08:36:45;1.00;;;1.00;;
43952;SDS011;29608;49.400;11.010;2022-09-03T08:39:14;2.58;;;1.02;;
43952;SDS011;29608;49.400;11.010;2022-09-03T08:41:47;1.55;;;1.17;;
43952;SDS011;29608;49.400;11.010;2022-09-03T08:44:40;2.28;;;1.15;;
43952;SDS011;29608;49.400;11.010;2022-09-03T08:47:14;5.75;;;1.63;;
43952;SDS011;29608;49.400;11.010;2022-09-03T08:49:49;1.75;;;1.02;;
43952;SDS011;29608;49.400;11.010;2022-09-03T08:52:25;2.55;;;0.82;;
43952;SDS011;29608;49.400;11.010;2022-09-03T08:55:02;1.40;;;1.30;;
43952;SDS011;29608;49.400;11.010;2022-09-03T08:57:45;1.60;;;1.48;;
43952;SDS011;29608;49.400;11.010;2022-09-03T09:00:16;1.42;;;1.15;;
43952;SDS011;29608;49.400;11.010;2022-09-03T09:02:48;2.60;;;1.20;;
43952;SDS011;29608;49.400;11.010;2022-09-03T09:05:36;1.08;;;0.93;;
43952;SDS011;29608;49.400;11.010;2022-09-03T09:08:19;1.42;;;1.08;;
43952;SDS011;29608;49.400;11.010;2022-09-03T09:11:03;1.30;;;1.13;;
43952;SDS011;29608;49.400;11.010;2022-09-03T09:13:47;2.20;;;1.55;;
43952;SDS011;29608;49.400;11.010;2022-09-03T09:16:27;1.58;;;1.27;;
43952;SDS011;29608;49.400;11.010;2022-09-03T09:19:14;1.77;;;1.45;;
43952;SDS011;29608;49.400;11.010;2022-09-03T09:21:59;1.20;;;1.10;;
43952;SDS011;29608;49.400;11.010;2022-09-03T09:24:34;3.53;;;1.25;;
43952;SDS011;29608;49.400;11.010;2022-09-03T09:27:08;3.20;;;1.13;;
43952;SDS011;29608;49.400;11.010;2022-09-03T09:29:42;1.63;;;1.10;;
43952;SDS011;29608;49.400;11.010;2022-09-03T09:32:17;1.55;;;0.98;;
43952;SDS011;29608;49.400;11.010;2022-09-03T09:34:47;1.45;;;1.10;;
43952;SDS011;29608;49.400;11.010;2022-09-03T09:39:54;1.30;;;1.17;;
43952;SDS011;29608;49.400;11.010;2022-09-03T09:42:24;2.58;;;0.85;;
43952;SDS011;29608;49.400;11.010;2022-09-03T09:44:56;2.35;;;1.20;;
43952;SDS011;29608;49.400;11.010;2022-09-03T09:47:24;1.00;;;1.00;;
43952;SDS011;29608;49.400;11.010;2022-09-03T09:49:57;1.92;;;1.10;;
43952;SDS011;29608;49.400;11.010;2022-09-03T09:55:06;1.00;;;0.90;;
43952;SDS011;29608;49.400;11.010;2022-09-03T09:57:38;1.77;;;1.20;;
43952;SDS011;29608;49.400;11.010;2022-09-03T10:00:06;2.58;;;0.95;;
43952;SDS011;29608;49.400;11.010;2022-09-03T10:02:38;1.15;;;1.00;;
43952;SDS011;29608;49.400;11.010;2022-09-03T10:05:13;1.08;;;0.77;;
43952;SDS011;29608;49.400;11.010;2022-09-03T10:07:53;2.13;;;1.05;;
43952;SDS011;29608;49.400;11.010;2022-09-03T10:10:28;5.72;;;1.08;;
43952;SDS011;29608;49.400;11.010;2022-09-03T10:13:03;0.88;;;0.88;;
43952;SDS011;29608;49.400;11.010;2022-09-03T10:15:37;3.78;;;1.25;;
43952;SDS011;29608;49.400;11.010;2022-09-03T10:18:14;3.35;;;1.20;;
43952;SDS011;29608;49.400;11.010;2022-09-03T10:23:31;0.77;;;0.77;;
43952;SDS011;29608;49.400;11.010;2022-09-03T10:26:06;3.33;;;0.90;;
43952;SDS011;29608;49.400;11.010;2022-09-03T10:28:40;6.88;;;1.50;;
43952;SDS011;29608;49.400;11.010;2022-09-03T10:34:28;1.98;;;1.27;;
43952;SDS011;29608;49.400;11.010;2022-09-03T10:37:08;1.20;;;1.10;;
43952;SDS011;29608;49.400;11.010;2022-09-03T10:39:51;1.25;;;1.05;;
43952;SDS011;29608;49.400;11.010;2022-09-03T10:42:39;2.13;;;1.05;;
43952;SDS011;29608;49.400;11.010;2022-09-03T10:45:16;1.33;;;1.15;;
43952;SDS011;29608;49.400;11.010;2022-09-03T10:48:08;0.98;;;0.98;;
43952;SDS011;29608;49.400;11.010;2022-09-03T10:50:55;2.28;;;1.05;;
43952;SDS011;29608;49.400;11.010;2022-09-03T10:53:32;1.25;;;1.00;;
43952;SDS011;29608;49.400;11.010;2022-09-03T10:56:20;1.10;;;1.00;;
43952;SDS011;29608;49.400;11.010;2022-09-03T10:59:02;1.00;;;1.00;;
43952;SDS011;29608;49.400;11.010;2022-09-03T11:01:56;2.13;;;1.30;;
43952;SDS011;29608;49.400;11.010;2022-09-03T11:04:45;1.13;;;1.02;;
43952;SDS011;29608;49.400;11.010;2022-09-03T11:07:24;0.80;;;0.80;;
43952;SDS011;29608;49.400;11.010;2022-09-03T11:10:00;1.42;;;1.33;;
43952;SDS011;29608;49.400;11.010;2022-09-03T11:12:42;3.42;;;1.20;;
43952;SDS011;29608;49.400;11.010;2022-09-03T11:15:23;2.78;;;1.55;;
43952;SDS011;29608;49.400;11.010;2022-09-03T11:17:57;1.17;;;1.08;;
43952;SDS011;29608;49.400;11.010;2022-09-03T11:20:32;2.97;;;1.27;;
43952;SDS011;29608;49.400;11.010;2022-09-03T11:23:02;1.10;;;1.10;;
43952;SDS011;29608;49.400;11.010;2022-09-03T11:25:36;1.30;;;1.20;;
43952;SDS011;29608;49.400;11.010;2022-09-03T11:28:12;2.95;;;1.05;;
43952;SDS011;29608;49.400;11.010;2022-09-03T11:31:01;1.80;;;1.55;;
43952;SDS011;29608;49.400;11.010;2022-09-03T11:33:50;2.67;;;1.17;;
43952;SDS011;29608;49.400;11.010;2022-09-03T11:36:28;1.40;;;1.13;;
43952;SDS011;29608;49.400;11.010;2022-09-03T11:38:58;1.42;;;1.30;;
43952;SDS011;29608;49.400;11.010;2022-09-03T11:41:27;1.63;;;1.52;;
43952;SDS011;29608;49.400;11.010;2022-09-03T11:44:09;2.60;;;1.58;;
43952;SDS011;29608;49.400;11.010;2022-09-03T11:46:55;1.77;;;1.23;;
43952;SDS011;29608;49.400;11.010;2022-09-03T11:49:27;5.70;;;1.20;;
43952;SDS011;29608;49.400;11.010;2022-09-03T11:51:58;1.27;;;1.10;;
43952;SDS011;29608;49.400;11.010;2022-09-03T11:54:43;1.17;;;1.08;;
43952;SDS011;29608;49.400;11.010;2022-09-03T11:57:30;1.23;;;1.13;;
43952;SDS011;29608;49.400;11.010;2022-09-03T12:00:30;1.75;;;1.27;;
43952;SDS011;29608;49.400;11.010;2022-09-03T12:03:01;2.88;;;1.40;;
43952;SDS011;29608;49.400;11.010;2022-09-03T12:05:31;1.50;;;1.10;;
43952;SDS011;29608;49.400;11.010;2022-09-03T12:08:18;1.65;;;1.10;;
43952;SDS011;29608;49.400;11.010;2022-09-03T12:11:19;1.15;;;0.90;;
43952;SDS011;29608;49.400;11.010;2022-09-03T12:14:05;0.98;;;0.98;;
43952;SDS011;29608;49.400;11.010;2022-09-03T12:16:47;1.52;;;1.30;;
43952;SDS011;29608;49.400;11.010;2022-09-03T12:19:30;0.90;;;0.80;;
43952;SDS011;29608;49.400;11.010;2022-09-03T12:22:04;2.50;;;1.45;;
43952;SDS011;29608;49.400;11.010;2022-09-03T12:24:38;1.08;;;1.08;;
43952;SDS011;29608;49.400;11.010;2022-09-03T12:27:09;2.97;;;1.33;;
43952;SDS011;29608;49.400;11.010;2022-09-03T12:29:49;1.27;;;1.20;;
43952;SDS011;29608;49.400;11.010;2022-09-03T12:32:23;0.77;;;0.77;;
43952;SDS011;29608;49.400;11.010;2022-09-03T12:35:14;1.08;;;0.98;;
43952;SDS011;29608;49.400;11.010;2022-09-03T12:38:06;1.37;;;1.27;;
43952;SDS011;29608;49.400;11.010;2022-09-03T12:40:44;4.72;;;1.33;;
43952;SDS011;29608;49.400;11.010;2022-09-03T12:43:34;1.08;;;1.02;;
43952;SDS011;29608;49.400;11.010;2022-09-03T12:46:14;1.20;;;1.00;;
43952;SDS011;29608;49.400;11.010;2022-09-03T12:48:46;2.25;;;1.10;;
43952;SDS011;29608;49.400;11.010;2022-09-03T12:51:41;3.25;;;1.38;;
43952;SDS011;29608;49.400;11.010;2022-09-03T12:54:19;1.33;;;1.10;;
43952;SDS011;29608;49.400;11.010;2022-09-03T12:56:49;1.45;;;1.20;;
43952;SDS011;29608;49.400;11.010;2022-09-03T12:59:23;1.83;;;1.13;;
43952;SDS011;29608;49.400;11.010;2022-09-03T13:02:25;4.47;;;1.10;;
43952;SDS011;29608;49.400;11.010;2022-09-03T13:05:02;2.33;;;1.30;;
43952;SDS011;29608;49.400;11.010;2022-09-03T13:10:39;1.38;;;1.25;;
43952;SDS011;29608;49.400;11.010;2022-09-03T13:13:20;2.40;;;1.10;;
43952;SDS011;29608;49.400;11.010;2022-09-03T13:16:02;1.75;;;1.20;;
43952;SDS011;29608;49.400;11.010;2022-09-03T13:19:07;1.55;;;1.20;;
43952;SDS011;29608;49.400;11.010;2022-09-03T13:21:54;1.73;;;1.23;;
43952;SDS011;29608;49.400;11.010;2022-09-03T13:24:59;2.25;;;1.30;;
43952;SDS011;29608;49.400;11.010;2022-09-03T13:27:53;1.40;;;1.30;;
43952;SDS011;29608;49.400;11.010;2022-09-03T13:30:59;1.23;;;1.00;;
43952;SDS011;29608;49.400;11.010;2022-09-03T13:33:48;2.75;;;1.50;;
43952;SDS011;29608;49.400;11.010;2022-09-03T13:36:29;2.20;;;1.20;;
43952;SDS011;29608;49.400;11.010;2022-09-03T13:39:11;2.53;;;1.30;;
43952;SDS011;29608;49.400;11.010;2022-09-03T13:42:01;1.35;;;1.00;;
43952;SDS011;29608;49.400;11.010;2022-09-03T13:44:51;2.90;;;1.42;;
43952;SDS011;29608;49.400;11.010;2022-09-03T13:47:33;1.15;;;1.05;;
43952;SDS011;29608;49.400;11.010;2022-09-03T13:50:25;1.63;;;1.52;;
43952;SDS011;29608;49.400;11.010;2022-09-03T13:53:06;1.38;;;1.27;;
43952;SDS011;29608;49.400;11.010;2022-09-03T13:55:45;2.45;;;1.63;;
43952;SDS011;29608;49.400;11.010;2022-09-03T13:58:23;3.58;;;1.55;;
43952;SDS011;29608;49.400;11.010;2022-09-03T14:01:09;4.15;;;1.50;;
43952;SDS011;29608;49.400;11.010;2022-09-03T14:03:47;2.40;;;1.50;;
43952;SDS011;29608;49.400;11.010;2022-09-03T14:06:29;1.95;;;1.40;;
43952;SDS011;29608;49.400;11.010;2022-09-03T14:09:18;4.72;;;1.83;;
43952;SDS011;29608;49.400;11.010;2022-09-03T14:12:01;2.25;;;1.65;;
43952;SDS011;29608;49.400;11.010;2022-09-03T14:14:48;2.55;;;1.50;;
43952;SDS011;29608;49.400;11.010;2022-09-03T14:17:29;2.47;;;1.13;;
43952;SDS011;29608;49.400;11.010;2022-09-03T14:20:16;2.95;;;1.17;;
43952;SDS011;29608;49.400;11.010;2022-09-03T14:22:55;2.75;;;1.50;;
43952;SDS011;29608;49.400;11.010;2022-09-03T14:25:31;4.28;;;1.52;;
43952;SDS011;29608;49.400;11.010;2022-09-03T14:28:12;1.63;;;1.52;;
43952;SDS011;29608;49.400;11.010;2022-09-03T14:30:48;1.45;;;1.20;;
43952;SDS011;29608;49.400;11.010;2022-09-03T14:33:30;3.15;;;1.40;;
43952;SDS011;29608;49.400;11.010;2022-09-03T14:36:08;1.42;;;1.23;;
43952;SDS011;29608;49.400;11.010;2022-09-03T14:38:53;1.90;;;1.48;;
43952;SDS011;29608;49.400;11.010;2022-09-03T14:41:53;1.80;;;1.70;;
43952;SDS011;29608;49.400;11.010;2022-09-03T14:44:42;1.77;;;1.50;;
43952;SDS011;29608;49.400;11.010;2022-09-03T14:47:40;4.25;;;1.27;;
43952;SDS011;29608;49.400;11.010;2022-09-03T14:50:34;1.45;;;1.23;;
43952;SDS011;29608;49.400;11.010;2022-09-03T14:56:28;2.03;;;1.70;;
43952;SDS011;29608;49.400;11.010;2022-09-03T14:59:16;1.75;;;1.50;;
43952;SDS011;29608;49.400;11.010;2022-09-03T15:02:11;1.60;;;1.50;;
43952;SDS011;29608;49.400;11.010;2022-09-03T15:05:13;1.27;;;1.17;;
43952;SDS011;29608;49.400;11.010;2022-09-03T15:07:55;3.95;;;1.35;;
43952;SDS011;29608;49.400;11.010;2022-09-03T15:10:35;2.83;;;1.42;;
43952;SDS011;29608;49.400;11.010;2022-09-03T15:13:13;2.03;;;1.63;;
43952;SDS011;29608;49.400;11.010;2022-09-03T15:15:50;4.65;;;1.45;;
43952;SDS011;29608;49.400;11.010;2022-09-03T15:18:37;3.50;;;1.48;;
43952;SDS011;29608;49.400;11.010;2022-09-03T15:21:31;4.30;;;1.42;;
43952;SDS011;29608;49.400;11.010;2022-09-03T15:24:22;1.38;;;1.27;;
43952;SDS011;29608;49.400;11.010;2022-09-03T15:27:11;2.70;;;1.38;;
43952;SDS011;29608;49.400;11.010;2022-09-03T15:30:00;1.92;;;1.30;;
43952;SDS011;29608;49.400;11.010;2022-09-03T15:32:41;1.77;;;1.30;;
43952;SDS011;29608;49.400;11.010;2022-09-03T15:35:29;2.70;;;1.63;;
43952;SDS011;29608;49.400;11.010;2022-09-03T15:38:11;1.40;;;1.30;;
43952;SDS011;29608;49.400;11.010;2022-09-03T15:40:51;3.13;;;1.75;;
43952;SDS011;29608;49.400;11.010;2022-09-03T15:43:22;1.30;;;1.20;;